sensor_id;sensor_type;location;lat;lon;timestamp;P1;durP1;ratioP1;P2;durP2;ratioP2
36353;SDS011;22383;51.114;13.666;2022-08-20T00:00:55;41.05;;;28.75;;
36353;SDS011;22383;51.114;13.666;2022-08-20T00:03:31;45.03;;;29.67;;
36353;SDS011;22383;51.114;13.666;2022-08-20T00:08:33;43.05;;;29.48;;
36353;SDS011;22383;51.114;13.666;2022-08-20T00:11:00;45.88;;;29.58;;
36353;SDS011;22383;51.114;13.666;2022-08-20T00:13:30;46.17;;;29.55;;
36353;SDS011;22383;51.114;13.666;2022-08-20T00:16:00;43.90;;;28.65;;
36353;SDS011;22383;51.114;13.666;2022-08-20T00:18:28;49.67;;;29.08;;
36353;SDS011;22383;51.114;13.666;2022-08-20T00:20:56;48.33;;;31.42;;
36353;SDS011;22383;51.114;13.666;2022-08-20T00:23:23;45.45;;;30.95;;
36353;SDS011;22383;51.114;13.666;2022-08-20T00:25:51;46.00;;;30.40;;
36353;SDS011;22383;51.114;13.666;2022-08-20T00:28:19;52.53;;;31.60;;
36353;SDS011;22383;51.114;13.666;2022-08-20T00:30:47;53.63;;;34.20;;
36353;SDS011;22383;51.114;13.666;2022-08-20T00:33:16;46.88;;;31.02;;
36353;SDS011;22383;51.114;13.666;2022-08-20T00:35:46;46.80;;;31.52;;
36353;SDS011;22383;51.114;13.666;2022-08-20T00:38:17;50.70;;;32.25;;
36353;SDS011;22383;51.114;13.666;2022-08-20T00:40:46;53.20;;;31.85;;
36353;SDS011;22383;51.114;13.666;2022-08-20T00:43:52;47.85;;;31.85;;
36353;SDS011;22383;51.114;13.666;2022-08-20T00:46:22;49.80;;;31.23;;
36353;SDS011;22383;51.114;13.666;2022-08-20T00:48:58;50.10;;;32.15;;
36353;SDS011;22383;51.114;13.666;2022-08-20T00:54:16;47.97;;;31.75;;
36353;SDS011;22383;51.114;13.666;2022-08-20T00:56:47;54.30;;;33.47;;
36353;SDS011;22383;51.114;13.666;2022-08-20T00:59:19;53.90;;;34.65;;
36353;SDS011;22383;51.114;13.666;2022-08-20T01:01:51;53.20;;;33.20;;
36353;SDS011;22383;51.114;13.666;2022-08-20T01:04:23;53.08;;;33.30;;
36353;SDS011;22383;51.114;13.666;2022-08-20T01:06:53;57.00;;;36.75;;
36353;SDS011;22383;51.114;13.666;2022-08-20T01:09:21;56.25;;;34.05;;
36353;SDS011;22383;51.114;13.666;2022-08-20T01:12:08;60.95;;;37.10;;
36353;SDS011;22383;51.114;13.666;2022-08-20T01:14:36;62.28;;;38.22;;
36353;SDS011;22383;51.114;13.666;2022-08-20T01:17:06;66.78;;;37.97;;
36353;SDS011;22383;51.114;13.666;2022-08-20T01:19:42;66.15;;;38.70;;
36353;SDS011;22383;51.114;13.666;2022-08-20T01:22:16;70.40;;;40.28;;
36353;SDS011;22383;51.114;13.666;2022-08-20T01:25:13;68.18;;;39.70;;
36353;SDS011;22383;51.114;13.666;2022-08-20T01:27:46;65.90;;;39.97;;
36353;SDS011;22383;51.114;13.666;2022-08-20T01:30:24;68.55;;;40.17;;
36353;SDS011;22383;51.114;13.666;2022-08-20T01:32:53;75.75;;;42.80;;
36353;SDS011;22383;51.114;13.666;2022-08-20T01:35:21;74.40;;;41.58;;
36353;SDS011;22383;51.114;13.666;2022-08-20T01:37:49;78.88;;;44.20;;
36353;SDS011;22383;51.114;13.666;2022-08-20T01:40:19;75.18;;;43.30;;
36353;SDS011;22383;51.114;13.666;2022-08-20T01:43:10;80.30;;;44.92;;
36353;SDS011;22383;51.114;13.666;2022-08-20T01:45:39;87.30;;;45.13;;
36353;SDS011;22383;51.114;13.666;2022-08-20T01:48:06;90.18;;;45.58;;
36353;SDS011;22383;51.114;13.666;2022-08-20T01:50:35;88.10;;;46.55;;
36353;SDS011;22383;51.114;13.666;2022-08-20T01:53:10;89.07;;;47.75;;
36353;SDS011;22383;51.114;13.666;2022-08-20T01:55:44;89.10;;;47.50;;
36353;SDS011;22383;51.114;13.666;2022-08-20T01:58:11;98.88;;;48.95;;
36353;SDS011;22383;51.114;13.666;2022-08-20T02:00:39;94.03;;;48.70;;
36353;SDS011;22383;51.114;13.666;2022-08-20T02:03:06;107.38;;;50.13;;
36353;SDS011;22383;51.114;13.666;2022-08-20T02:05:34;100.90;;;49.42;;
36353;SDS011;22383;51.114;13.666;2022-08-20T02:08:02;121.18;;;53.33;;
36353;SDS011;22383;51.114;13.666;2022-08-20T02:10:31;109.82;;;51.92;;
36353;SDS011;22383;51.114;13.666;2022-08-20T02:12:58;112.38;;;52.47;;
36353;SDS011;22383;51.114;13.666;2022-08-20T02:15:27;110.65;;;53.15;;
36353;SDS011;22383;51.114;13.666;2022-08-20T02:18:04;108.57;;;51.58;;
36353;SDS011;22383;51.114;13.666;2022-08-20T02:20:34;113.60;;;52.90;;
36353;SDS011;22383;51.114;13.666;2022-08-20T02:23:02;121.28;;;53.88;;
36353;SDS011;22383;51.114;13.666;2022-08-20T02:25:32;121.55;;;55.30;;
36353;SDS011;22383;51.114;13.666;2022-08-20T02:28:03;118.15;;;54.72;;
36353;SDS011;22383;51.114;13.666;2022-08-20T02:33:44;128.30;;;56.25;;
36353;SDS011;22383;51.114;13.666;2022-08-20T02:36:31;127.22;;;56.15;;
36353;SDS011;22383;51.114;13.666;2022-08-20T02:38:59;122.35;;;54.42;;
36353;SDS011;22383;51.114;13.666;2022-08-20T02:41:26;128.85;;;57.28;;
36353;SDS011;22383;51.114;13.666;2022-08-20T02:43:53;128.20;;;56.20;;
36353;SDS011;22383;51.114;13.666;2022-08-20T02:46:20;121.60;;;52.08;;
36353;SDS011;22383;51.114;13.666;2022-08-20T02:48:48;129.63;;;53.35;;
36353;SDS011;22383;51.114;13.666;2022-08-20T02:53:56;106.93;;;46.22;;
36353;SDS011;22383;51.114;13.666;2022-08-20T02:56:23;101.15;;;45.55;;
36353;SDS011;22383;51.114;13.666;2022-08-20T02:58:50;110.28;;;48.42;;
36353;SDS011;22383;51.114;13.666;2022-08-20T03:01:17;100.03;;;45.20;;
36353;SDS011;22383;51.114;13.666;2022-08-20T03:03:45;97.20;;;44.03;;
36353;SDS011;22383;51.114;13.666;2022-08-20T03:06:12;101.28;;;46.70;;
36353;SDS011;22383;51.114;13.666;2022-08-20T03:11:07;112.38;;;45.83;;
36353;SDS011;22383;51.114;13.666;2022-08-20T03:13:35;103.68;;;44.58;;
36353;SDS011;22383;51.114;13.666;2022-08-20T03:16:03;104.45;;;46.28;;
36353;SDS011;22383;51.114;13.666;2022-08-20T03:18:34;113.15;;;46.28;;
36353;SDS011;22383;51.114;13.666;2022-08-20T03:21:04;115.35;;;47.50;;
36353;SDS011;22383;51.114;13.666;2022-08-20T03:23:35;126.70;;;50.00;;
36353;SDS011;22383;51.114;13.666;2022-08-20T03:26:07;119.65;;;48.47;;
36353;SDS011;22383;51.114;13.666;2022-08-20T03:28:38;118.40;;;47.30;;
36353;SDS011;22383;51.114;13.666;2022-08-20T03:31:06;124.30;;;47.15;;
36353;SDS011;22383;51.114;13.666;2022-08-20T03:33:33;129.25;;;48.55;;
36353;SDS011;22383;51.114;13.666;2022-08-20T03:40:59;122.07;;;44.13;;
36353;SDS011;22383;51.114;13.666;2022-08-20T03:43:28;116.07;;;43.92;;
36353;SDS011;22383;51.114;13.666;2022-08-20T03:45:56;114.20;;;45.58;;
36353;SDS011;22383;51.114;13.666;2022-08-20T03:48:23;102.70;;;42.63;;
36353;SDS011;22383;51.114;13.666;2022-08-20T03:50:51;113.63;;;42.92;;
36353;SDS011;22383;51.114;13.666;2022-08-20T03:53:18;103.28;;;39.20;;
36353;SDS011;22383;51.114;13.666;2022-08-20T03:55:46;104.57;;;40.78;;
36353;SDS011;22383;51.114;13.666;2022-08-20T03:58:21;102.15;;;39.78;;
36353;SDS011;22383;51.114;13.666;2022-08-20T04:01:02;97.93;;;37.85;;
36353;SDS011;22383;51.114;13.666;2022-08-20T04:03:31;103.03;;;39.72;;
36353;SDS011;22383;51.114;13.666;2022-08-20T04:05:58;107.05;;;41.17;;
36353;SDS011;22383;51.114;13.666;2022-08-20T04:08:26;85.95;;;37.17;;
36353;SDS011;22383;51.114;13.666;2022-08-20T04:10:57;84.20;;;36.22;;
36353;SDS011;22383;51.114;13.666;2022-08-20T04:13:26;95.63;;;35.40;;
36353;SDS011;22383;51.114;13.666;2022-08-20T04:15:55;75.72;;;33.67;;
36353;SDS011;22383;51.114;13.666;2022-08-20T04:18:24;74.32;;;29.42;;
36353;SDS011;22383;51.114;13.666;2022-08-20T04:20:52;74.05;;;29.15;;
36353;SDS011;22383;51.114;13.666;2022-08-20T04:23:19;64.82;;;28.35;;
36353;SDS011;22383;51.114;13.666;2022-08-20T04:25:50;63.50;;;26.92;;
36353;SDS011;22383;51.114;13.666;2022-08-20T04:28:23;58.75;;;24.90;;
36353;SDS011;22383;51.114;13.666;2022-08-20T04:30:54;46.25;;;22.45;;
36353;SDS011;22383;51.114;13.666;2022-08-20T04:33:23;51.15;;;23.30;;
36353;SDS011;22383;51.114;13.666;2022-08-20T04:36:01;51.03;;;22.42;;
36353;SDS011;22383;51.114;13.666;2022-08-20T04:38:31;52.45;;;21.77;;
36353;SDS011;22383;51.114;13.666;2022-08-20T04:41:19;45.75;;;18.80;;
36353;SDS011;22383;51.114;13.666;2022-08-20T04:43:53;45.33;;;19.60;;
36353;SDS011;22383;51.114;13.666;2022-08-20T04:46:23;45.25;;;20.35;;
36353;SDS011;22383;51.114;13.666;2022-08-20T04:48:53;56.35;;;21.65;;
36353;SDS011;22383;51.114;13.666;2022-08-20T04:51:21;47.35;;;19.83;;
36353;SDS011;22383;51.114;13.666;2022-08-20T04:53:51;50.42;;;22.08;;
36353;SDS011;22383;51.114;13.666;2022-08-20T04:56:21;127.60;;;23.95;;
36353;SDS011;22383;51.114;13.666;2022-08-20T04:58:52;73.78;;;24.00;;
36353;SDS011;22383;51.114;13.666;2022-08-20T05:01:21;57.35;;;23.00;;
36353;SDS011;22383;51.114;13.666;2022-08-20T05:03:49;43.20;;;18.20;;
36353;SDS011;22383;51.114;13.666;2022-08-20T05:06:20;44.63;;;19.20;;
36353;SDS011;22383;51.114;13.666;2022-08-20T05:08:51;40.92;;;18.20;;
36353;SDS011;22383;51.114;13.666;2022-08-20T05:11:19;33.85;;;15.65;;
36353;SDS011;22383;51.114;13.666;2022-08-20T05:14:05;37.38;;;17.52;;
36353;SDS011;22383;51.114;13.666;2022-08-20T05:16:38;36.75;;;17.23;;
36353;SDS011;22383;51.114;13.666;2022-08-20T05:19:07;40.75;;;18.48;;
36353;SDS011;22383;51.114;13.666;2022-08-20T05:21:37;42.03;;;19.15;;
36353;SDS011;22383;51.114;13.666;2022-08-20T05:24:05;44.75;;;20.55;;
36353;SDS011;22383;51.114;13.666;2022-08-20T05:26:33;51.95;;;21.98;;
36353;SDS011;22383;51.114;13.666;2022-08-20T05:31:31;61.63;;;25.02;;
36353;SDS011;22383;51.114;13.666;2022-08-20T05:34:03;65.35;;;27.48;;
36353;SDS011;22383;51.114;13.666;2022-08-20T05:36:41;66.30;;;26.95;;
36353;SDS011;22383;51.114;13.666;2022-08-20T05:39:16;63.88;;;27.70;;
36353;SDS011;22383;51.114;13.666;2022-08-20T05:41:44;88.15;;;29.17;;
36353;SDS011;22383;51.114;13.666;2022-08-20T05:44:11;69.80;;;29.98;;
36353;SDS011;22383;51.114;13.666;2022-08-20T05:46:41;70.88;;;29.63;;
36353;SDS011;22383;51.114;13.666;2022-08-20T05:49:12;74.38;;;30.52;;
36353;SDS011;22383;51.114;13.666;2022-08-20T05:51:47;82.15;;;31.63;;
36353;SDS011;22383;51.114;13.666;2022-08-20T05:54:15;95.22;;;34.67;;
36353;SDS011;22383;51.114;13.666;2022-08-20T05:56:42;92.50;;;36.35;;
36353;SDS011;22383;51.114;13.666;2022-08-20T05:59:10;92.05;;;37.30;;
36353;SDS011;22383;51.114;13.666;2022-08-20T06:01:40;90.43;;;38.53;;
36353;SDS011;22383;51.114;13.666;2022-08-20T06:04:09;106.38;;;42.28;;
36353;SDS011;22383;51.114;13.666;2022-08-20T06:07:11;102.50;;;40.47;;
36353;SDS011;22383;51.114;13.666;2022-08-20T06:09:39;102.45;;;41.33;;
36353;SDS011;22383;51.114;13.666;2022-08-20T06:12:10;89.78;;;40.50;;
36353;SDS011;22383;51.114;13.666;2022-08-20T06:14:37;94.63;;;42.00;;
36353;SDS011;22383;51.114;13.666;2022-08-20T06:17:13;109.63;;;43.13;;
36353;SDS011;22383;51.114;13.666;2022-08-20T06:19:44;99.65;;;41.55;;
36353;SDS011;22383;51.114;13.666;2022-08-20T06:22:13;99.25;;;40.17;;
36353;SDS011;22383;51.114;13.666;2022-08-20T06:24:50;90.30;;;40.38;;
36353;SDS011;22383;51.114;13.666;2022-08-20T06:27:17;93.78;;;40.47;;
36353;SDS011;22383;51.114;13.666;2022-08-20T06:29:44;94.22;;;39.20;;
36353;SDS011;22383;51.114;13.666;2022-08-20T06:32:12;102.30;;;41.65;;
36353;SDS011;22383;51.114;13.666;2022-08-20T06:34:39;102.25;;;44.17;;
36353;SDS011;22383;51.114;13.666;2022-08-20T06:37:21;113.30;;;44.93;;
36353;SDS011;22383;51.114;13.666;2022-08-20T06:40:01;117.80;;;48.03;;
36353;SDS011;22383;51.114;13.666;2022-08-20T06:42:36;112.35;;;46.60;;
36353;SDS011;22383;51.114;13.666;2022-08-20T06:45:14;121.85;;;51.58;;
36353;SDS011;22383;51.114;13.666;2022-08-20T06:47:46;132.15;;;54.58;;
36353;SDS011;22383;51.114;13.666;2022-08-20T06:50:20;130.25;;;52.05;;
36353;SDS011;22383;51.114;13.666;2022-08-20T06:52:53;130.82;;;53.67;;
36353;SDS011;22383;51.114;13.666;2022-08-20T06:55:20;146.25;;;56.15;;
36353;SDS011;22383;51.114;13.666;2022-08-20T06:57:57;141.77;;;57.17;;
36353;SDS011;22383;51.114;13.666;2022-08-20T07:00:26;165.82;;;59.85;;
36353;SDS011;22383;51.114;13.666;2022-08-20T07:02:55;145.65;;;56.78;;
36353;SDS011;22383;51.114;13.666;2022-08-20T07:05:24;171.00;;;59.67;;
36353;SDS011;22383;51.114;13.666;2022-08-20T07:07:52;149.18;;;57.05;;
36353;SDS011;22383;51.114;13.666;2022-08-20T07:10:20;148.48;;;56.08;;
36353;SDS011;22383;51.114;13.666;2022-08-20T07:12:49;139.90;;;53.90;;
36353;SDS011;22383;51.114;13.666;2022-08-20T07:15:18;148.80;;;56.55;;
36353;SDS011;22383;51.114;13.666;2022-08-20T07:17:57;143.23;;;57.90;;
36353;SDS011;22383;51.114;13.666;2022-08-20T07:20:27;165.32;;;56.83;;
36353;SDS011;22383;51.114;13.666;2022-08-20T07:22:56;176.35;;;63.22;;
36353;SDS011;22383;51.114;13.666;2022-08-20T07:25:24;171.65;;;60.40;;
36353;SDS011;22383;51.114;13.666;2022-08-20T07:30:25;182.07;;;64.07;;
36353;SDS011;22383;51.114;13.666;2022-08-20T07:33:24;170.65;;;60.63;;
36353;SDS011;22383;51.114;13.666;2022-08-20T07:35:55;194.95;;;64.80;;
36353;SDS011;22383;51.114;13.666;2022-08-20T07:38:25;196.75;;;65.47;;
36353;SDS011;22383;51.114;13.666;2022-08-20T07:40:55;186.90;;;65.72;;
36353;SDS011;22383;51.114;13.666;2022-08-20T07:43:24;190.90;;;65.40;;
36353;SDS011;22383;51.114;13.666;2022-08-20T07:45:52;210.80;;;68.15;;
36353;SDS011;22383;51.114;13.666;2022-08-20T07:48:26;194.15;;;69.10;;
36353;SDS011;22383;51.114;13.666;2022-08-20T07:50:59;212.38;;;70.10;;
36353;SDS011;22383;51.114;13.666;2022-08-20T07:53:32;193.73;;;69.03;;
36353;SDS011;22383;51.114;13.666;2022-08-20T07:56:06;216.43;;;70.70;;
36353;SDS011;22383;51.114;13.666;2022-08-20T07:58:38;207.32;;;73.75;;
36353;SDS011;22383;51.114;13.666;2022-08-20T08:01:09;235.02;;;75.95;;
36353;SDS011;22383;51.114;13.666;2022-08-20T08:03:39;218.88;;;72.22;;
36353;SDS011;22383;51.114;13.666;2022-08-20T08:06:19;207.80;;;74.38;;
36353;SDS011;22383;51.114;13.666;2022-08-20T08:08:57;218.15;;;74.35;;
36353;SDS011;22383;51.114;13.666;2022-08-20T08:11:28;198.73;;;72.88;;
36353;SDS011;22383;51.114;13.666;2022-08-20T08:13:57;194.20;;;72.45;;
36353;SDS011;22383;51.114;13.666;2022-08-20T08:16:26;224.52;;;76.55;;
36353;SDS011;22383;51.114;13.666;2022-08-20T08:18:55;215.68;;;75.45;;
36353;SDS011;22383;51.114;13.666;2022-08-20T08:21:24;204.68;;;75.95;;
36353;SDS011;22383;51.114;13.666;2022-08-20T08:23:51;198.38;;;74.05;;
36353;SDS011;22383;51.114;13.666;2022-08-20T08:26:19;196.38;;;71.65;;
36353;SDS011;22383;51.114;13.666;2022-08-20T08:28:47;193.93;;;72.07;;
36353;SDS011;22383;51.114;13.666;2022-08-20T08:31:14;199.82;;;73.88;;
36353;SDS011;22383;51.114;13.666;2022-08-20T08:33:43;193.70;;;71.82;;
36353;SDS011;22383;51.114;13.666;2022-08-20T08:36:11;219.80;;;77.70;;
36353;SDS011;22383;51.114;13.666;2022-08-20T08:38:42;183.32;;;71.03;;
36353;SDS011;22383;51.114;13.666;2022-08-20T08:43:56;193.10;;;74.85;;
36353;SDS011;22383;51.114;13.666;2022-08-20T08:46:31;192.07;;;70.93;;
36353;SDS011;22383;51.114;13.666;2022-08-20T08:49:03;170.57;;;70.50;;
36353;SDS011;22383;51.114;13.666;2022-08-20T08:51:34;169.70;;;68.93;;
36353;SDS011;22383;51.114;13.666;2022-08-20T08:54:08;177.07;;;71.83;;
36353;SDS011;22383;51.114;13.666;2022-08-20T08:56:42;174.98;;;70.47;;
36353;SDS011;22383;51.114;13.666;2022-08-20T08:59:16;173.95;;;68.07;;
36353;SDS011;22383;51.114;13.666;2022-08-20T09:01:49;173.55;;;67.68;;
36353;SDS011;22383;51.114;13.666;2022-08-20T09:04:26;179.77;;;71.88;;
36353;SDS011;22383;51.114;13.666;2022-08-20T09:06:58;171.57;;;70.28;;
36353;SDS011;22383;51.114;13.666;2022-08-20T09:09:31;174.65;;;71.38;;
36353;SDS011;22383;51.114;13.666;2022-08-20T09:12:05;171.45;;;70.82;;
36353;SDS011;22383;51.114;13.666;2022-08-20T09:14:34;171.68;;;70.43;;
36353;SDS011;22383;51.114;13.666;2022-08-20T09:17:02;173.52;;;69.25;;
36353;SDS011;22383;51.114;13.666;2022-08-20T09:19:30;164.40;;;66.13;;
36353;SDS011;22383;51.114;13.666;2022-08-20T09:21:58;184.73;;;68.32;;
36353;SDS011;22383;51.114;13.666;2022-08-20T09:24:25;176.57;;;71.30;;
36353;SDS011;22383;51.114;13.666;2022-08-20T09:26:52;164.50;;;68.75;;
36353;SDS011;22383;51.114;13.666;2022-08-20T09:29:19;166.73;;;70.55;;
36353;SDS011;22383;51.114;13.666;2022-08-20T09:31:47;144.52;;;64.30;;
36353;SDS011;22383;51.114;13.666;2022-08-20T09:34:14;152.20;;;65.82;;
36353;SDS011;22383;51.114;13.666;2022-08-20T09:36:41;146.50;;;64.53;;
36353;SDS011;22383;51.114;13.666;2022-08-20T09:39:08;140.00;;;65.53;;
36353;SDS011;22383;51.114;13.666;2022-08-20T09:41:36;134.48;;;64.13;;
36353;SDS011;22383;51.114;13.666;2022-08-20T09:44:03;147.30;;;64.88;;
36353;SDS011;22383;51.114;13.666;2022-08-20T09:46:30;147.07;;;67.57;;
36353;SDS011;22383;51.114;13.666;2022-08-20T09:48:57;143.63;;;66.63;;
36353;SDS011;22383;51.114;13.666;2022-08-20T09:51:24;138.15;;;65.70;;
36353;SDS011;22383;51.114;13.666;2022-08-20T09:53:52;124.13;;;62.08;;
36353;SDS011;22383;51.114;13.666;2022-08-20T09:56:20;127.57;;;62.15;;
36353;SDS011;22383;51.114;13.666;2022-08-20T09:58:48;143.32;;;66.72;;
36353;SDS011;22383;51.114;13.666;2022-08-20T10:01:18;138.45;;;65.57;;
36353;SDS011;22383;51.114;13.666;2022-08-20T10:03:48;131.25;;;64.68;;
36353;SDS011;22383;51.114;13.666;2022-08-20T10:06:16;138.98;;;64.50;;
36353;SDS011;22383;51.114;13.666;2022-08-20T10:08:47;124.63;;;61.47;;
36353;SDS011;22383;51.114;13.666;2022-08-20T10:11:15;112.50;;;58.88;;
36353;SDS011;22383;51.114;13.666;2022-08-20T10:13:44;113.88;;;59.33;;
36353;SDS011;22383;51.114;13.666;2022-08-20T10:16:12;118.63;;;58.22;;
36353;SDS011;22383;51.114;13.666;2022-08-20T10:18:39;117.65;;;61.40;;
36353;SDS011;22383;51.114;13.666;2022-08-20T10:21:09;112.70;;;58.47;;
36353;SDS011;22383;51.114;13.666;2022-08-20T10:23:37;109.25;;;59.25;;
36353;SDS011;22383;51.114;13.666;2022-08-20T10:26:08;116.53;;;60.80;;
36353;SDS011;22383;51.114;13.666;2022-08-20T10:28:36;110.97;;;59.15;;
36353;SDS011;22383;51.114;13.666;2022-08-20T10:31:05;119.47;;;61.83;;
36353;SDS011;22383;51.114;13.666;2022-08-20T10:33:34;95.43;;;54.30;;
36353;SDS011;22383;51.114;13.666;2022-08-20T10:38:46;108.45;;;57.58;;
36353;SDS011;22383;51.114;13.666;2022-08-20T10:41:15;109.75;;;59.92;;
36353;SDS011;22383;51.114;13.666;2022-08-20T10:43:42;103.20;;;57.33;;
36353;SDS011;22383;51.114;13.666;2022-08-20T10:46:09;95.63;;;54.63;;
36353;SDS011;22383;51.114;13.666;2022-08-20T10:48:37;91.45;;;52.95;;
36353;SDS011;22383;51.114;13.666;2022-08-20T10:51:04;94.95;;;55.83;;
36353;SDS011;22383;51.114;13.666;2022-08-20T10:53:32;97.40;;;55.60;;
36353;SDS011;22383;51.114;13.666;2022-08-20T10:56:00;88.30;;;52.83;;
36353;SDS011;22383;51.114;13.666;2022-08-20T10:58:27;90.82;;;53.38;;
36353;SDS011;22383;51.114;13.666;2022-08-20T11:01:05;93.93;;;52.88;;
36353;SDS011;22383;51.114;13.666;2022-08-20T11:03:33;89.90;;;52.22;;
36353;SDS011;22383;51.114;13.666;2022-08-20T11:06:02;94.80;;;54.90;;
36353;SDS011;22383;51.114;13.666;2022-08-20T11:08:29;93.53;;;53.42;;
36353;SDS011;22383;51.114;13.666;2022-08-20T11:11:02;100.32;;;56.40;;
36353;SDS011;22383;51.114;13.666;2022-08-20T11:13:31;103.00;;;56.63;;
36353;SDS011;22383;51.114;13.666;2022-08-20T11:16:00;100.18;;;54.33;;
36353;SDS011;22383;51.114;13.666;2022-08-20T11:20:54;101.63;;;56.10;;
36353;SDS011;22383;51.114;13.666;2022-08-20T11:23:23;95.90;;;57.03;;
36353;SDS011;22383;51.114;13.666;2022-08-20T11:25:50;95.43;;;54.17;;
36353;SDS011;22383;51.114;13.666;2022-08-20T11:30:58;103.55;;;57.85;;
36353;SDS011;22383;51.114;13.666;2022-08-20T11:33:26;105.35;;;59.85;;
36353;SDS011;22383;51.114;13.666;2022-08-20T11:38:21;107.97;;;58.95;;
36353;SDS011;22383;51.114;13.666;2022-08-20T11:40:48;111.40;;;60.58;;
36353;SDS011;22383;51.114;13.666;2022-08-20T11:43:15;120.75;;;63.58;;
36353;SDS011;22383;51.114;13.666;2022-08-20T11:45:45;120.13;;;61.60;;
36353;SDS011;22383;51.114;13.666;2022-08-20T11:48:15;132.73;;;65.07;;
36353;SDS011;22383;51.114;13.666;2022-08-20T11:50:44;124.50;;;64.82;;
36353;SDS011;22383;51.114;13.666;2022-08-20T11:53:11;126.60;;;64.38;;
36353;SDS011;22383;51.114;13.666;2022-08-20T11:55:40;116.40;;;62.05;;
36353;SDS011;22383;51.114;13.666;2022-08-20T11:58:09;124.47;;;61.88;;
36353;SDS011;22383;51.114;13.666;2022-08-20T12:03:04;118.68;;;61.40;;
36353;SDS011;22383;51.114;13.666;2022-08-20T12:05:36;128.57;;;67.05;;
36353;SDS011;22383;51.114;13.666;2022-08-20T12:08:05;128.10;;;65.80;;
36353;SDS011;22383;51.114;13.666;2022-08-20T12:10:34;126.00;;;64.68;;
36353;SDS011;22383;51.114;13.666;2022-08-20T12:13:03;133.90;;;68.65;;
36353;SDS011;22383;51.114;13.666;2022-08-20T12:15:33;123.10;;;66.05;;
36353;SDS011;22383;51.114;13.666;2022-08-20T12:18:04;130.98;;;68.40;;
36353;SDS011;22383;51.114;13.666;2022-08-20T12:20:36;133.52;;;67.40;;
36353;SDS011;22383;51.114;13.666;2022-08-20T12:23:03;132.85;;;65.43;;
36353;SDS011;22383;51.114;13.666;2022-08-20T12:25:31;130.73;;;67.85;;
36353;SDS011;22383;51.114;13.666;2022-08-20T12:27:58;150.32;;;70.03;;
36353;SDS011;22383;51.114;13.666;2022-08-20T12:30:26;132.70;;;68.68;;
36353;SDS011;22383;51.114;13.666;2022-08-20T12:32:53;132.95;;;65.78;;
36353;SDS011;22383;51.114;13.666;2022-08-20T12:35:21;129.80;;;67.03;;
36353;SDS011;22383;51.114;13.666;2022-08-20T12:37:49;130.98;;;67.47;;
36353;SDS011;22383;51.114;13.666;2022-08-20T12:40:19;131.27;;;67.38;;
36353;SDS011;22383;51.114;13.666;2022-08-20T12:42:59;143.20;;;66.88;;
36353;SDS011;22383;51.114;13.666;2022-08-20T12:45:28;139.88;;;68.82;;
36353;SDS011;22383;51.114;13.666;2022-08-20T12:48:02;145.70;;;69.40;;
36353;SDS011;22383;51.114;13.666;2022-08-20T12:50:31;146.88;;;68.90;;
36353;SDS011;22383;51.114;13.666;2022-08-20T12:53:00;157.93;;;70.45;;
36353;SDS011;22383;51.114;13.666;2022-08-20T12:55:28;146.48;;;69.10;;
36353;SDS011;22383;51.114;13.666;2022-08-20T12:57:57;146.30;;;69.28;;
36353;SDS011;22383;51.114;13.666;2022-08-20T13:00:29;154.57;;;69.55;;
36353;SDS011;22383;51.114;13.666;2022-08-20T13:03:03;152.27;;;68.60;;
36353;SDS011;22383;51.114;13.666;2022-08-20T13:05:32;140.27;;;66.88;;
36353;SDS011;22383;51.114;13.666;2022-08-20T13:08:01;143.07;;;67.63;;
36353;SDS011;22383;51.114;13.666;2022-08-20T13:10:34;142.73;;;68.40;;
36353;SDS011;22383;51.114;13.666;2022-08-20T13:13:03;145.05;;;68.32;;
36353;SDS011;22383;51.114;13.666;2022-08-20T13:15:31;131.00;;;64.07;;
36353;SDS011;22383;51.114;13.666;2022-08-20T13:18:00;132.68;;;63.10;;
36353;SDS011;22383;51.114;13.666;2022-08-20T13:20:28;143.23;;;68.32;;
36353;SDS011;22383;51.114;13.666;2022-08-20T13:23:02;125.88;;;62.17;;
36353;SDS011;22383;51.114;13.666;2022-08-20T13:25:31;128.18;;;63.60;;
36353;SDS011;22383;51.114;13.666;2022-08-20T13:28:00;143.25;;;67.80;;
36353;SDS011;22383;51.114;13.666;2022-08-20T13:30:31;137.82;;;65.78;;
36353;SDS011;22383;51.114;13.666;2022-08-20T13:33:01;132.50;;;64.35;;
36353;SDS011;22383;51.114;13.666;2022-08-20T13:35:28;137.52;;;65.25;;
36353;SDS011;22383;51.114;13.666;2022-08-20T13:37:56;126.43;;;63.65;;
36353;SDS011;22383;51.114;13.666;2022-08-20T13:42:52;119.90;;;63.33;;
36353;SDS011;22383;51.114;13.666;2022-08-20T13:45:19;129.45;;;64.72;;
36353;SDS011;22383;51.114;13.666;2022-08-20T13:47:47;127.38;;;61.72;;
36353;SDS011;22383;51.114;13.666;2022-08-20T13:50:20;129.98;;;63.97;;
36353;SDS011;22383;51.114;13.666;2022-08-20T13:52:48;120.68;;;61.38;;
36353;SDS011;22383;51.114;13.666;2022-08-20T13:55:17;129.63;;;62.80;;
36353;SDS011;22383;51.114;13.666;2022-08-20T13:57:45;130.45;;;63.28;;
36353;SDS011;22383;51.114;13.666;2022-08-20T14:00:15;130.45;;;63.88;;
36353;SDS011;22383;51.114;13.666;2022-08-20T14:02:45;129.38;;;63.80;;
36353;SDS011;22383;51.114;13.666;2022-08-20T14:05:12;129.73;;;63.55;;
36353;SDS011;22383;51.114;13.666;2022-08-20T14:07:46;127.65;;;66.63;;
36353;SDS011;22383;51.114;13.666;2022-08-20T14:10:19;122.75;;;61.75;;
36353;SDS011;22383;51.114;13.666;2022-08-20T14:12:50;119.95;;;61.35;;
36353;SDS011;22383;51.114;13.666;2022-08-20T14:15:17;124.07;;;61.92;;
36353;SDS011;22383;51.114;13.666;2022-08-20T14:17:49;125.70;;;64.20;;
36353;SDS011;22383;51.114;13.666;2022-08-20T14:20:19;117.60;;;60.72;;
36353;SDS011;22383;51.114;13.666;2022-08-20T14:22:48;119.13;;;60.90;;
36353;SDS011;22383;51.114;13.666;2022-08-20T14:25:17;124.18;;;61.80;;
36353;SDS011;22383;51.114;13.666;2022-08-20T14:27:48;112.32;;;58.65;;
36353;SDS011;22383;51.114;13.666;2022-08-20T14:30:18;108.88;;;57.70;;
36353;SDS011;22383;51.114;13.666;2022-08-20T14:32:47;112.80;;;58.22;;
36353;SDS011;22383;51.114;13.666;2022-08-20T14:35:15;118.03;;;61.30;;
36353;SDS011;22383;51.114;13.666;2022-08-20T14:37:45;114.03;;;59.65;;
36353;SDS011;22383;51.114;13.666;2022-08-20T14:40:15;118.55;;;60.97;;
36353;SDS011;22383;51.114;13.666;2022-08-20T14:42:44;130.75;;;61.72;;
36353;SDS011;22383;51.114;13.666;2022-08-20T14:45:18;122.75;;;59.95;;
36353;SDS011;22383;51.114;13.666;2022-08-20T14:47:53;105.28;;;58.88;;
36353;SDS011;22383;51.114;13.666;2022-08-20T14:50:25;102.93;;;55.17;;
36353;SDS011;22383;51.114;13.666;2022-08-20T14:52:52;99.38;;;55.97;;
36353;SDS011;22383;51.114;13.666;2022-08-20T14:55:21;103.65;;;54.72;;
36353;SDS011;22383;51.114;13.666;2022-08-20T14:57:51;108.97;;;55.88;;
36353;SDS011;22383;51.114;13.666;2022-08-20T15:00:22;102.05;;;55.05;;